createdAt,value
2022-09-24T00:02:11.639Z,96.77
2022-09-24T00:04:38.271Z,97.26
2022-09-24T00:07:05.109Z,98.41
2022-09-24T00:09:31.679Z,98.52
2022-09-24T00:11:58.464Z,99.30
2022-09-24T00:14:25.020Z,99.20
2022-09-24T00:16:51.573Z,99.22
2022-09-24T00:19:18.107Z,99.22
2022-09-24T00:21:44.958Z,99.44
2022-09-24T00:24:36.483Z,99.18
2022-09-24T00:27:04.647Z,98.10
2022-09-24T00:29:34.427Z,97.89
2022-09-24T00:32:01.895Z,97.11
2022-09-24T00:34:28.626Z,97.09
2022-09-24T00:36:55.181Z,97.39
2022-09-24T00:39:21.904Z,97.44
2022-09-24T00:41:49.109Z,97.85
2022-09-24T00:44:48.179Z,98.38
2022-09-24T00:47:31.762Z,99.00
2022-09-24T00:50:08.120Z,98.16
2022-09-24T00:52:40.869Z,97.89
2022-09-24T00:55:08.951Z,97.51
2022-09-24T00:57:37.599Z,97.62
2022-09-24T01:00:07.077Z,98.18
2022-09-24T01:02:39.132Z,98.67
2022-09-24T01:05:05.883Z,98.63
2022-09-24T01:07:32.576Z,99.67
2022-09-24T01:09:59.353Z,100.00
2022-09-24T01:12:53.129Z,99.45
2022-09-24T01:15:34.750Z,99.59
2022-09-24T01:18:22.242Z,100.00
2022-09-24T01:21:14.660Z,100.00
2022-09-24T01:24:05.873Z,100.00
2022-09-24T01:26:56.623Z,100.00
2022-09-24T01:29:25.861Z,100.00
2022-09-24T01:32:05.939Z,100.00
2022-09-24T01:34:43.531Z,100.00
2022-09-24T01:37:14.099Z,100.00
2022-09-24T01:39:42.046Z,100.00
2022-09-24T01:42:11.057Z,100.00
2022-09-24T01:44:38.890Z,100.00
2022-09-24T01:47:08.144Z,100.00
2022-09-24T01:49:34.694Z,100.00
2022-09-24T01:52:06.976Z,100.00
2022-09-24T01:54:41.375Z,100.00
2022-09-24T01:57:12.004Z,100.00
2022-09-24T01:59:40.641Z,100.00
2022-09-24T02:02:11.554Z,100.00
2022-09-24T02:04:44.192Z,100.00
2022-09-24T02:07:16.590Z,100.00
2022-09-24T02:09:44.114Z,100.00
2022-09-24T02:12:14.789Z,100.00
2022-09-24T02:14:44.393Z,100.00
2022-09-24T02:17:12.318Z,100.00
2022-09-24T02:19:41.321Z,100.00
2022-09-24T02:22:10.660Z,100.00
2022-09-24T02:24:45.539Z,100.00
2022-09-24T02:27:12.694Z,100.00
2022-09-24T02:29:39.585Z,100.00
2022-09-24T02:32:09.363Z,100.00
2022-09-24T02:34:41.362Z,100.00
2022-09-24T02:37:10.919Z,100.00
2022-09-24T02:39:37.611Z,100.00
2022-09-24T02:42:06.506Z,100.00
2022-09-24T02:44:34.253Z,100.00
2022-09-24T02:47:01.032Z,100.00
2022-09-24T02:49:27.650Z,100.00
2022-09-24T02:51:54.402Z,100.00
2022-09-24T02:54:22.114Z,100.00
2022-09-24T02:56:48.927Z,100.00
2022-09-24T02:59:15.446Z,100.00
2022-09-24T03:01:42.116Z,100.00
2022-09-24T03:04:09.221Z,100.00
2022-09-24T03:06:36.857Z,100.00
2022-09-24T03:09:04.243Z,100.00
2022-09-24T03:11:32.076Z,100.00
2022-09-24T03:13:59.155Z,100.00
2022-09-24T03:16:26.052Z,100.00
2022-09-24T03:18:52.610Z,100.00
2022-09-24T03:21:22.225Z,100.00
2022-09-24T03:23:48.790Z,100.00
2022-09-24T03:26:17.530Z,100.00
2022-09-24T03:28:44.336Z,100.00
2022-09-24T03:31:11.219Z,100.00
2022-09-24T03:33:39.503Z,100.00
2022-09-24T03:36:10.211Z,100.00
2022-09-24T03:38:37.270Z,100.00
2022-09-24T03:41:04.826Z,100.00
2022-09-24T03:43:31.797Z,100.00
2022-09-24T03:45:58.304Z,100.00
2022-09-24T03:48:26.130Z,100.00
2022-09-24T03:50:53.371Z,100.00
2022-09-24T03:53:20.521Z,100.00
2022-09-24T03:55:49.402Z,100.00
2022-09-24T03:58:16.221Z,100.00
2022-09-24T04:00:42.873Z,100.00
2022-09-24T04:03:09.657Z,100.00
2022-09-24T04:05:36.295Z,100.00
2022-09-24T04:08:03.173Z,100.00
2022-09-24T04:10:29.980Z,100.00
2022-09-24T04:12:57.019Z,100.00
2022-09-24T04:15:23.630Z,100.00
2022-09-24T04:17:59.625Z,100.00
2022-09-24T04:20:28.779Z,100.00
2022-09-24T04:22:58.028Z,100.00
2022-09-24T04:25:26.281Z,100.00
2022-09-24T04:27:57.619Z,100.00
2022-09-24T04:30:24.984Z,100.00
2022-09-24T04:32:51.819Z,100.00
2022-09-24T04:35:23.180Z,100.00
2022-09-24T04:37:50.312Z,100.00
2022-09-24T04:40:17.321Z,100.00
2022-09-24T04:42:46.349Z,100.00
2022-09-24T04:45:16.414Z,100.00
2022-09-24T04:47:43.240Z,100.00
2022-09-24T04:50:11.538Z,100.00
2022-09-24T04:52:38.900Z,100.00
2022-09-24T04:55:06.227Z,100.00
2022-09-24T04:57:35.025Z,100.00
2022-09-24T05:00:06.377Z,100.00
2022-09-24T05:02:33.438Z,100.00
2022-09-24T05:05:00.163Z,100.00
2022-09-24T05:07:26.996Z,100.00
2022-09-24T05:09:53.533Z,100.00
2022-09-24T05:12:21.270Z,100.00
2022-09-24T05:14:48.766Z,100.00
2022-09-24T05:17:15.577Z,100.00
2022-09-24T05:19:42.202Z,100.00
2022-09-24T05:22:08.761Z,100.00
2022-09-24T05:24:35.318Z,100.00
2022-09-24T05:27:10.830Z,100.00
2022-09-24T05:29:43.426Z,100.00
2022-09-24T05:32:15.284Z,100.00
2022-09-24T05:34:43.122Z,100.00
2022-09-24T05:37:10.281Z,100.00
2022-09-24T05:39:36.981Z,100.00
2022-09-24T05:42:04.333Z,100.00
2022-09-24T05:44:34.043Z,100.00
2022-09-24T05:47:00.639Z,100.00
2022-09-24T05:49:27.297Z,100.00
2022-09-24T05:51:53.795Z,100.00
2022-09-24T05:54:20.339Z,100.00
2022-09-24T05:56:47.337Z,100.00
2022-09-24T05:59:14.179Z,100.00
2022-09-24T06:01:40.880Z,100.00
2022-09-24T06:04:08.974Z,100.00
2022-09-24T06:06:36.413Z,100.00
2022-09-24T06:09:03.513Z,100.00
2022-09-24T06:11:40.132Z,100.00
2022-09-24T06:14:08.715Z,100.00
2022-09-24T06:16:35.681Z,100.00
2022-09-24T06:19:02.483Z,100.00
2022-09-24T06:21:29.096Z,100.00
2022-09-24T06:23:55.606Z,100.00
2022-09-24T06:26:22.320Z,100.00
2022-09-24T06:28:49.131Z,100.00
2022-09-24T06:31:15.794Z,100.00
2022-09-24T06:33:42.577Z,100.00
2022-09-24T06:36:09.436Z,100.00
2022-09-24T06:38:36.566Z,100.00
2022-09-24T06:41:05.329Z,100.00
2022-09-24T06:43:32.647Z,100.00
2022-09-24T06:46:00.343Z,100.00
2022-09-24T06:48:28.000Z,100.00
2022-09-24T06:50:57.701Z,100.00
2022-09-24T06:53:24.239Z,100.00
2022-09-24T06:55:51.120Z,100.00
2022-09-24T06:58:23.748Z,100.00
2022-09-24T07:00:53.072Z,100.00
2022-09-24T07:03:20.944Z,100.00
2022-09-24T07:05:48.244Z,99.35
2022-09-24T07:08:14.824Z,99.18
2022-09-24T07:10:46.149Z,97.67
2022-09-24T07:13:13.776Z,96.15
2022-09-24T07:15:41.862Z,96.08
2022-09-24T07:18:09.189Z,95.35
2022-09-24T07:20:37.055Z,95.11
2022-09-24T07:23:09.192Z,95.61
2022-09-24T07:25:39.383Z,95.82
2022-09-24T07:28:08.834Z,94.95
2022-09-24T07:30:36.476Z,95.31
2022-09-24T07:33:03.930Z,92.64
2022-09-24T07:35:31.513Z,91.35
2022-09-24T07:38:00.407Z,90.56
2022-09-24T07:40:28.322Z,89.96
2022-09-24T07:42:55.344Z,89.03
2022-09-24T07:45:32.438Z,86.60
2022-09-24T07:47:59.972Z,86.08
2022-09-24T07:50:28.335Z,82.37
2022-09-24T07:52:55.366Z,81.44
2022-09-24T07:55:22.743Z,79.48
2022-09-24T07:57:51.883Z,78.02
2022-09-24T08:00:20.095Z,76.42
2022-09-24T08:02:47.782Z,76.72
2022-09-24T08:05:16.644Z,77.52
2022-09-24T08:07:43.222Z,77.85
2022-09-24T08:10:10.026Z,77.21
2022-09-24T08:12:36.609Z,77.87
2022-09-24T08:15:03.371Z,75.91
2022-09-24T08:17:31.179Z,76.20
2022-09-24T08:19:57.782Z,76.23
2022-09-24T08:22:25.051Z,74.98
2022-09-24T08:24:51.747Z,75.66
2022-09-24T08:27:20.323Z,76.41
2022-09-24T08:29:47.102Z,77.14
2022-09-24T08:32:13.958Z,77.40
2022-09-24T08:34:40.837Z,76.85
2022-09-24T08:37:08.293Z,77.29
2022-09-24T08:39:35.385Z,77.93
2022-09-24T08:42:04.656Z,79.00
2022-09-24T08:44:58.099Z,79.89
2022-09-24T08:47:36.493Z,81.09
2022-09-24T08:50:13.501Z,80.27
2022-09-24T08:52:49.836Z,78.89
2022-09-24T08:55:27.936Z,78.28
2022-09-24T08:58:00.852Z,78.67
2022-09-24T09:00:31.892Z,78.70
2022-09-24T09:03:24.276Z,79.13
2022-09-24T09:05:59.354Z,79.05
2022-09-24T09:08:54.923Z,79.19
2022-09-24T09:11:24.742Z,79.28
2022-09-24T09:14:26.932Z,78.82
2022-09-24T09:17:01.273Z,77.26
2022-09-24T09:19:33.775Z,77.54
2022-09-24T09:22:10.427Z,76.93
2022-09-24T09:24:52.520Z,74.20
2022-09-24T09:27:20.460Z,73.39
2022-09-24T09:30:03.112Z,72.28
2022-09-24T09:32:57.279Z,75.02
2022-09-24T09:35:39.002Z,73.37
2022-09-24T09:38:17.320Z,72.72
2022-09-24T09:41:06.571Z,72.42
2022-09-24T09:43:33.357Z,71.79
2022-09-24T09:46:12.677Z,70.77
2022-09-24T09:48:48.606Z,68.59
2022-09-24T09:51:22.625Z,67.18
2022-09-24T09:53:57.901Z,68.51
2022-09-24T09:56:30.562Z,67.25
2022-09-24T09:59:08.247Z,66.55
2022-09-24T10:01:37.844Z,64.99
2022-09-24T10:04:05.292Z,64.67
2022-09-24T10:06:34.447Z,64.28
2022-09-24T10:09:16.639Z,64.45
2022-09-24T10:11:43.298Z,65.12
2022-09-24T10:14:15.570Z,65.16
2022-09-24T10:16:54.042Z,66.33
2022-09-24T10:19:26.777Z,65.55
2022-09-24T10:21:57.345Z,63.48
2022-09-24T10:24:25.305Z,62.64
2022-09-24T10:26:52.878Z,61.81
2022-09-24T10:29:52.709Z,61.95
2022-09-24T10:32:23.040Z,61.06
2022-09-24T10:34:57.866Z,61.46
2022-09-24T10:37:24.702Z,61.53
2022-09-24T10:40:11.272Z,62.51
2022-09-24T10:42:38.389Z,62.43
2022-09-24T10:45:13.757Z,63.32
2022-09-24T10:48:10.940Z,63.66
2022-09-24T10:51:15.223Z,64.24
2022-09-24T10:53:47.674Z,64.40
2022-09-24T10:56:34.028Z,64.44
2022-09-24T10:59:13.468Z,64.42
2022-09-24T11:01:53.154Z,64.28
2022-09-24T11:04:42.844Z,63.19
2022-09-24T11:07:56.510Z,62.46
2022-09-24T11:10:43.488Z,61.47
2022-09-24T11:13:18.247Z,60.90
2022-09-24T11:16:00.000Z,61.87
2022-09-24T11:18:47.704Z,62.07
2022-09-24T11:21:35.522Z,61.82
2022-09-24T11:24:38.010Z,59.73
2022-09-24T11:27:28.370Z,59.16
2022-09-24T11:30:07.092Z,57.59
2022-09-24T11:32:55.434Z,56.28
2022-09-24T11:36:07.171Z,56.75
2022-09-24T11:39:04.330Z,54.84
2022-09-24T11:42:08.450Z,54.03
2022-09-24T11:44:59.610Z,53.42
2022-09-24T11:47:54.265Z,52.58
2022-09-24T11:50:47.364Z,52.26
2022-09-24T11:53:46.281Z,52.59
2022-09-24T11:56:47.284Z,52.70
2022-09-24T11:59:25.307Z,53.07
2022-09-24T12:02:01.644Z,53.39
2022-09-24T12:04:53.185Z,53.51
2022-09-24T12:07:45.546Z,52.97
2022-09-24T12:10:29.895Z,52.38
2022-09-24T12:13:13.859Z,53.26
2022-09-24T12:15:49.638Z,53.33
2022-09-24T12:18:21.300Z,51.91
2022-09-24T12:20:56.269Z,50.42
2022-09-24T12:23:28.528Z,50.21
2022-09-24T12:25:57.948Z,49.57
2022-09-24T12:28:46.785Z,49.36
2022-09-24T12:32:01.733Z,49.35
2022-09-24T12:34:52.025Z,49.95
2022-09-24T12:37:24.155Z,51.10
2022-09-24T12:40:21.453Z,52.58
2022-09-24T12:42:56.686Z,52.82
2022-09-24T12:45:24.776Z,52.71
2022-09-24T12:48:00.022Z,51.55
2022-09-24T12:50:29.957Z,52.14
2022-09-24T12:52:56.770Z,51.85
2022-09-24T12:55:24.689Z,51.08
2022-09-24T12:57:58.258Z,50.23
2022-09-24T13:00:33.912Z,49.16
2022-09-24T13:03:03.268Z,47.91
2022-09-24T13:05:34.440Z,48.35
2022-09-24T13:08:24.685Z,49.58
2022-09-24T13:10:58.822Z,48.89
2022-09-24T13:13:33.502Z,47.99
2022-09-24T13:16:06.351Z,47.63
2022-09-24T13:18:37.414Z,46.67
2022-09-24T13:21:07.044Z,46.20
2022-09-24T13:23:45.627Z,45.10
2022-09-24T13:26:25.753Z,44.41
2022-09-24T13:29:01.929Z,45.14
2022-09-24T13:31:28.419Z,44.45
2022-09-24T13:34:00.758Z,43.72
2022-09-24T13:36:45.641Z,44.00
2022-09-24T13:39:21.573Z,45.27
2022-09-24T13:42:13.298Z,44.83
2022-09-24T13:44:43.552Z,45.80
2022-09-24T13:47:38.336Z,46.13
2022-09-24T13:50:29.927Z,46.63
2022-09-24T13:53:16.645Z,46.40
2022-09-24T13:55:49.067Z,46.55
2022-09-24T13:58:29.289Z,46.04
2022-09-24T14:00:58.404Z,45.75
2022-09-24T14:03:34.624Z,46.14
2022-09-24T14:06:09.500Z,46.78
2022-09-24T14:08:36.499Z,47.45
2022-09-24T14:11:10.132Z,46.84
2022-09-24T14:13:46.289Z,46.15
2022-09-24T14:16:23.460Z,46.64
2022-09-24T14:19:02.162Z,47.26
2022-09-24T14:22:01.781Z,47.61
2022-09-24T14:24:42.433Z,47.27
2022-09-24T14:27:15.651Z,46.27
2022-09-24T14:29:50.159Z,46.88
2022-09-24T14:32:24.007Z,47.93
2022-09-24T14:34:56.128Z,48.05
2022-09-24T14:37:27.281Z,48.50
2022-09-24T14:40:07.779Z,48.39
2022-09-24T14:42:44.002Z,48.91
2022-09-24T14:45:21.435Z,49.70
2022-09-24T14:47:48.464Z,49.91
2022-09-24T14:50:35.418Z,50.22
2022-09-24T14:53:10.975Z,50.40
2022-09-24T14:55:40.181Z,50.50
2022-09-24T14:58:23.328Z,51.32
2022-09-24T15:00:56.124Z,51.38
2022-09-24T15:03:34.624Z,51.51
2022-09-24T15:06:23.468Z,52.00
2022-09-24T15:09:06.177Z,52.48
2022-09-24T15:11:36.113Z,53.07
2022-09-24T15:14:08.698Z,53.07
2022-09-24T15:16:37.048Z,53.48
2022-09-24T15:19:06.625Z,53.86
2022-09-24T15:21:34.907Z,54.20
2022-09-24T15:24:01.899Z,54.37
2022-09-24T15:26:30.961Z,53.75
2022-09-24T15:28:59.294Z,53.64
2022-09-24T15:31:26.234Z,53.92
2022-09-24T15:33:53.250Z,54.62
2022-09-24T15:36:21.221Z,54.32
2022-09-24T15:38:50.353Z,54.17
2022-09-24T15:41:21.733Z,54.17
2022-09-24T15:43:48.222Z,54.35
2022-09-24T15:46:14.872Z,54.23
2022-09-24T15:48:41.445Z,54.58
2022-09-24T15:51:15.039Z,54.85
2022-09-24T15:53:42.182Z,54.71
2022-09-24T15:56:08.747Z,55.27
2022-09-24T15:58:35.623Z,55.92
2022-09-24T16:01:02.820Z,55.40
2022-09-24T16:03:32.568Z,55.08
2022-09-24T16:06:00.252Z,55.14
2022-09-24T16:08:27.005Z,54.79
2022-09-24T16:10:53.746Z,54.93
2022-09-24T16:13:22.425Z,55.85
2022-09-24T16:15:49.403Z,55.93
2022-09-24T16:18:17.977Z,55.98
2022-09-24T16:20:46.211Z,56.05
2022-09-24T16:23:15.634Z,56.36
2022-09-24T16:25:53.698Z,56.26
2022-09-24T16:28:20.217Z,56.30
2022-09-24T16:30:46.963Z,56.56
2022-09-24T16:33:13.455Z,56.74
2022-09-24T16:35:39.950Z,57.45
2022-09-24T16:38:06.515Z,57.95
2022-09-24T16:40:33.194Z,58.11
2022-09-24T16:43:00.005Z,58.10
2022-09-24T16:45:26.605Z,58.02
2022-09-24T16:47:53.193Z,58.09
2022-09-24T16:50:20.239Z,58.69
2022-09-24T16:52:49.148Z,59.30
2022-09-24T16:55:16.676Z,59.45
2022-09-24T16:57:43.137Z,60.21
2022-09-24T17:00:10.796Z,60.45
2022-09-24T17:02:37.365Z,60.60
2022-09-24T17:05:04.436Z,61.06
2022-09-24T17:07:32.234Z,61.37
2022-09-24T17:10:15.863Z,62.04
2022-09-24T17:12:49.144Z,62.43
2022-09-24T17:15:19.321Z,62.27
2022-09-24T17:17:50.347Z,62.84
2022-09-24T17:20:18.286Z,63.36
2022-09-24T17:22:44.962Z,63.48
2022-09-24T17:25:11.655Z,63.91
2022-09-24T17:27:40.040Z,64.04
2022-09-24T17:30:07.390Z,63.93
2022-09-24T17:32:33.951Z,64.39
2022-09-24T17:35:00.531Z,64.92
2022-09-24T17:37:27.511Z,65.32
2022-09-24T17:39:54.054Z,65.65
2022-09-24T17:42:20.657Z,65.97
2022-09-24T17:44:47.177Z,66.12
2022-09-24T17:47:14.321Z,66.70
2022-09-24T17:49:40.787Z,67.17
2022-09-24T17:52:07.500Z,67.65
2022-09-24T17:54:34.417Z,68.21
2022-09-24T17:57:01.965Z,68.53
2022-09-24T17:59:28.648Z,68.64
2022-09-24T18:01:55.350Z,68.80
2022-09-24T18:04:22.120Z,69.38
2022-09-24T18:06:49.662Z,69.66
2022-09-24T18:09:17.483Z,70.15
2022-09-24T18:11:51.521Z,71.13
2022-09-24T18:14:20.415Z,71.01
2022-09-24T18:16:46.950Z,70.91
2022-09-24T18:19:17.072Z,71.13
2022-09-24T18:21:45.413Z,71.18
2022-09-24T18:24:12.548Z,71.00
2022-09-24T18:26:39.979Z,70.99
2022-09-24T18:29:15.618Z,71.17
2022-09-24T18:31:42.839Z,71.24
2022-09-24T18:34:12.985Z,73.08
2022-09-24T18:36:41.103Z,74.51
2022-09-24T18:39:12.080Z,75.58
2022-09-24T18:41:39.598Z,77.55
2022-09-24T18:44:06.375Z,78.57
2022-09-24T18:46:33.663Z,79.10
2022-09-24T18:49:01.070Z,79.20
2022-09-24T18:51:30.957Z,80.15
2022-09-24T18:54:06.328Z,82.05
2022-09-24T18:56:33.318Z,84.68
2022-09-24T18:58:59.797Z,87.84
2022-09-24T19:01:27.153Z,90.40
2022-09-24T19:04:00.074Z,93.77
2022-09-24T19:06:28.056Z,97.22
2022-09-24T19:08:54.638Z,99.01
2022-09-24T19:11:22.887Z,100.00
2022-09-24T19:13:52.090Z,100.00
2022-09-24T19:16:20.223Z,100.00
2022-09-24T19:18:46.871Z,100.00
2022-09-24T19:21:14.734Z,100.00
2022-09-24T19:23:47.508Z,100.00
2022-09-24T19:26:16.810Z,100.00
2022-09-24T19:28:44.265Z,100.00
2022-09-24T19:31:23.836Z,100.00
2022-09-24T19:33:51.961Z,100.00
2022-09-24T19:36:18.499Z,100.00
2022-09-24T19:38:45.699Z,100.00
2022-09-24T19:41:15.229Z,100.00
2022-09-24T19:43:45.350Z,100.00
2022-09-24T19:46:14.687Z,100.00
2022-09-24T19:48:44.336Z,100.00
2022-09-24T19:51:16.362Z,100.00
2022-09-24T19:53:43.914Z,100.00
2022-09-24T19:56:11.371Z,100.00
2022-09-24T19:58:38.142Z,100.00
2022-09-24T20:01:06.684Z,100.00
2022-09-24T20:03:34.775Z,100.00
2022-09-24T20:06:07.689Z,100.00
2022-09-24T20:08:34.461Z,100.00
2022-09-24T20:11:09.696Z,100.00
2022-09-24T20:13:37.206Z,100.00
2022-09-24T20:16:04.997Z,100.00
2022-09-24T20:18:34.445Z,100.00
2022-09-24T20:21:05.497Z,100.00
2022-09-24T20:23:31.985Z,100.00
2022-09-24T20:26:17.585Z,100.00
2022-09-24T20:28:44.380Z,100.00
2022-09-24T20:31:12.582Z,100.00
2022-09-24T20:33:43.129Z,100.00
2022-09-24T20:36:15.873Z,100.00
2022-09-24T20:38:45.855Z,100.00
2022-09-24T20:41:18.091Z,100.00
2022-09-24T20:43:48.490Z,100.00
2022-09-24T20:46:27.405Z,100.00
2022-09-24T20:49:00.399Z,100.00
2022-09-24T20:51:29.736Z,100.00
2022-09-24T20:53:58.326Z,100.00
2022-09-24T20:56:26.760Z,100.00
2022-09-24T20:58:53.596Z,100.00
2022-09-24T21:01:24.769Z,100.00
2022-09-24T21:03:51.735Z,100.00
2022-09-24T21:06:22.702Z,100.00
2022-09-24T21:08:49.594Z,100.00
2022-09-24T21:11:21.604Z,100.00
2022-09-24T21:13:51.348Z,100.00
2022-09-24T21:16:23.352Z,100.00
2022-09-24T21:18:54.227Z,100.00
2022-09-24T21:21:22.096Z,100.00
2022-09-24T21:23:51.480Z,100.00
2022-09-24T21:26:29.101Z,100.00
2022-09-24T21:28:59.601Z,100.00
2022-09-24T21:31:31.512Z,100.00
2022-09-24T21:33:58.421Z,100.00
2022-09-24T21:36:29.252Z,100.00
2022-09-24T21:38:57.480Z,100.00
2022-09-24T21:41:26.546Z,100.00
2022-09-24T21:43:55.851Z,100.00
2022-09-24T21:46:23.861Z,100.00
2022-09-24T21:48:51.288Z,100.00
2022-09-24T21:51:21.569Z,100.00
2022-09-24T21:53:53.076Z,100.00
2022-09-24T21:56:20.881Z,100.00
2022-09-24T21:58:51.642Z,100.00
2022-09-24T22:01:29.790Z,100.00
2022-09-24T22:04:01.167Z,100.00
2022-09-24T22:06:29.648Z,100.00
2022-09-24T22:08:58.030Z,100.00
2022-09-24T22:11:27.303Z,100.00
2022-09-24T22:13:55.118Z,100.00
2022-09-24T22:16:22.049Z,100.00
2022-09-24T22:18:48.585Z,100.00
2022-09-24T22:21:15.727Z,100.00
2022-09-24T22:23:42.241Z,100.00
2022-09-24T22:26:10.065Z,100.00
2022-09-24T22:28:38.005Z,100.00
2022-09-24T22:31:09.619Z,100.00
2022-09-24T22:33:55.286Z,100.00
2022-09-24T22:36:21.796Z,100.00
2022-09-24T22:38:51.842Z,100.00
2022-09-24T22:41:18.630Z,100.00
2022-09-24T22:43:45.971Z,100.00
2022-09-24T22:46:13.356Z,100.00
2022-09-24T22:48:40.414Z,100.00
2022-09-24T22:51:08.364Z,100.00
2022-09-24T22:53:36.790Z,100.00
2022-09-24T22:56:16.689Z,100.00
2022-09-24T22:58:45.059Z,100.00
2022-09-24T23:01:22.518Z,100.00
2022-09-24T23:03:51.419Z,100.00
2022-09-24T23:06:18.527Z,100.00
2022-09-24T23:08:45.160Z,100.00
2022-09-24T23:11:17.100Z,100.00
2022-09-24T23:13:45.005Z,100.00
2022-09-24T23:16:39.330Z,100.00
2022-09-24T23:19:08.440Z,100.00
2022-09-24T23:21:35.416Z,100.00
2022-09-24T23:24:05.663Z,100.00
2022-09-24T23:26:32.267Z,100.00
2022-09-24T23:29:00.324Z,100.00
2022-09-24T23:31:30.174Z,100.00
2022-09-24T23:33:58.940Z,100.00
2022-09-24T23:36:26.920Z,100.00
2022-09-24T23:38:53.862Z,100.00
2022-09-24T23:41:21.800Z,100.00
2022-09-24T23:43:48.919Z,100.00
2022-09-24T23:46:16.360Z,100.00
2022-09-24T23:48:43.020Z,100.00
2022-09-24T23:51:09.853Z,100.00
2022-09-24T23:53:37.339Z,100.00
2022-09-24T23:56:05.794Z,100.00
2022-09-24T23:58:32.986Z,100.00
